Arun — FGD9919 — position and weather

sailwx.info

Track history (hours):
 
Tides and Currents Weather Stations Pressure Air Temp Water Temp Dewpoint Dewpoint Depression Visibility Wind Speed Wind Dir Waves Ship Positions

Arun

Last reported at 2017-Nov-22 22:00 UTC. Time now 2017-Nov-22 22:19 UTC.
Position N 48°23' W 004°30'.

Length 35 m; draft 1.7 m.

Type: Passenger vessel. MMSI: 227612860.

Date/timePositionNaut miles runAvg speedWind from/ knotsBaromVisibWave heightAir tempDewpointWater temp
2017-Nov-22 22:00N 48°23' W 004°30'0 0.0
2017-Nov-22 21:30N 48°23' W 004°30'0 0.0
2017-Nov-22 21:00N 48°23' W 004°30'0 0.0
2017-Nov-22 20:30N 48°23' W 004°30'0 0.0
2017-Nov-22 20:00N 48°23' W 004°30'0 0.0
2017-Nov-22 19:30N 48°23' W 004°30'  
2017-Nov-19 08:39N 48°23' W 004°30'1 4.5
2017-Nov-19 08:31N 48°22' W 004°29'5 9.1
2017-Nov-19 08:00N 48°18' W 004°29'3 5.6
2017-Nov-19 07:28N 48°17' W 004°25'1 2.6
2017-Nov-19 07:01N 48°18' W 004°26'3 6.6
2017-Nov-19 06:31N 48°21' W 004°29'2 4.9
2017-Nov-19 06:00N 48°23' W 004°30'0 0.0
2017-Nov-18 08:51N 48°23' W 004°30'310.0
2017-Nov-18 08:31N 48°20' W 004°29'2 4.0
2017-Nov-18 08:00N 48°18' W 004°27'2 3.6
2017-Nov-18 07:29N 48°17' W 004°25'2 5.2
2017-Nov-18 07:00N 48°18' W 004°28'2 4.7
2017-Nov-18 06:30N 48°20' W 004°29'3 5.4
2017-Nov-18 06:00N 48°23' W 004°30'0 0.0
2017-Nov-17 18:10N 48°23' W 004°30'1 5.0
2017-Nov-17 18:01N 48°22' W 004°29'4 8.5
2017-Nov-17 17:30N 48°18' W 004°28'1 2.4
2017-Nov-17 17:01N 48°19' W 004°27'4 7.9
2017-Nov-17 16:28N 48°23' W 004°30'0 0.5
2017-Nov-17 16:01N 48°23' W 004°30'5 9.6
2017-Nov-17 15:29N 48°18' W 004°31'4 9.4
2017-Nov-17 15:01N 48°22' W 004°29'1 0.1
2017-Nov-17 07:30N 48°23' W 004°30'510.1
2017-Nov-17 06:59N 48°18' W 004°31'510.8
2017-Nov-17 06:31N 48°23' W 004°30'0 0.4
2017-Nov-17 05:59N 48°23' W 004°30'0 0.2
2017-Nov-17 05:29N 48°23' W 004°30'0 0.0
2017-Nov-16 16:04N 48°23' W 004°30'0 0.2
2017-Nov-16 16:00N 48°23' W 004°30'510.5
2017-Nov-16 15:30N 48°18' W 004°31'3 5.6
2017-Nov-16 15:00N 48°20' W 004°29'3 1.2
2017-Nov-16 12:45N 48°23' W 004°30'2 8.7
2017-Nov-16 12:31N 48°21' W 004°29'3 6.2
2017-Nov-16 12:01N 48°18' W 004°27'2 4.1
2017-Nov-16 11:31N 48°20' W 004°28'3 6.3
2017-Nov-16 11:00N 48°23' W 004°30'0 0.0
2017-Nov-16 07:18N 48°23' W 004°30'413.2
2017-Nov-16 07:00N 48°19' W 004°29'1 2.2
2017-Nov-16 06:30N 48°20' W 004°29'3 5.2
2017-Nov-16 05:58N 48°23' W 004°30'0 0.0
2017-Nov-15 16:05N 48°23' W 004°30'0 0.5
2017-Nov-15 16:01N 48°23' W 004°30'510.0
2017-Nov-15 15:29N 48°18' W 004°31'3 7.2
2017-Nov-15 15:00N 48°21' W 004°29'2 0.9
2017-Nov-15 12:57N 48°23' W 004°30'3 7.6
2017-Nov-15 12:31N 48°20' W 004°29'3 5.7
2017-Nov-15 12:00N 48°18' W 004°26'3 5.6
2017-Nov-15 11:31N 48°20' W 004°28'3 5.8
2017-Nov-15 11:00N 48°23' W 004°30'0 0.0
2017-Nov-15 07:22N 48°23' W 004°30'411.1
2017-Nov-15 07:00N 48°19' W 004°29'1 2.4
2017-Nov-15 06:31N 48°20' W 004°29'3 5.7
2017-Nov-15 06:00N 48°23' W 004°30'0 0.0
2017-Nov-14 16:07N 48°23' W 004°30'0 0.3
2017-Nov-14 16:00N 48°23' W 004°30'5 9.8
2017-Nov-14 15:29N 48°18' W 004°31'3 7.5
2017-Nov-14 15:01N 48°21' W 004°29'2 0.8
2017-Nov-14 12:48N 48°23' W 004°30'2 7.9
2017-Nov-14 12:30N 48°21' W 004°29'3 6.2
2017-Nov-14 12:00N 48°18' W 004°27'3 5.3
2017-Nov-14 11:30N 48°20' W 004°28'3 5.3
2017-Nov-14 11:00N 48°23' W 004°30'0 0.0
2017-Nov-14 08:50N 48°23' W 004°30'1 2.8
2017-Nov-14 08:30N 48°22' W 004°31'0 0.7
2017-Nov-14 08:00N 48°22' W 004°30'1 1.3
2017-Nov-14 07:29N 48°23' W 004°30'4 9.1
2017-Nov-14 07:00N 48°19' W 004°29'  
Track history (hours):
 
Tides and Currents Weather Stations Pressure Air Temp Water Temp Dewpoint Dewpoint Depression Visibility Wind Speed Wind Dir Waves Ship Positions

Arun

Last reported at 2017-Nov-22 22:00 UTC. Time now 2017-Nov-22 22:19 UTC.
Position N 48°23' W 004°30'.

Length 35 m; draft 1.7 m.

Type: Passenger vessel. MMSI: 227612860.

Date/timePositionNaut miles runAvg speedWind from/ knotsBaromVisibWave heightAir tempDewpointWater temp
2017-Nov-22 22:00N 48°23' W 004°30'0 0.0
2017-Nov-22 21:30N 48°23' W 004°30'0 0.0
2017-Nov-22 21:00N 48°23' W 004°30'0 0.0
2017-Nov-22 20:30N 48°23' W 004°30'0 0.0
2017-Nov-22 20:00N 48°23' W 004°30'0 0.0
2017-Nov-22 19:30N 48°23' W 004°30'  
2017-Nov-19 08:39N 48°23' W 004°30'1 4.5
2017-Nov-19 08:31N 48°22' W 004°29'5 9.1
2017-Nov-19 08:00N 48°18' W 004°29'3 5.6
2017-Nov-19 07:28N 48°17' W 004°25'1 2.6
2017-Nov-19 07:01N 48°18' W 004°26'3 6.6
2017-Nov-19 06:31N 48°21' W 004°29'2 4.9
2017-Nov-19 06:00N 48°23' W 004°30'0 0.0
2017-Nov-18 08:51N 48°23' W 004°30'310.0
2017-Nov-18 08:31N 48°20' W 004°29'2 4.0
2017-Nov-18 08:00N 48°18' W 004°27'2 3.6
2017-Nov-18 07:29N 48°17' W 004°25'2 5.2
2017-Nov-18 07:00N 48°18' W 004°28'2 4.7
2017-Nov-18 06:30N 48°20' W 004°29'3 5.4
2017-Nov-18 06:00N 48°23' W 004°30'0 0.0
2017-Nov-17 18:10N 48°23' W 004°30'1 5.0
2017-Nov-17 18:01N 48°22' W 004°29'4 8.5
2017-Nov-17 17:30N 48°18' W 004°28'1 2.4
2017-Nov-17 17:01N 48°19' W 004°27'4 7.9
2017-Nov-17 16:28N 48°23' W 004°30'0 0.5
2017-Nov-17 16:01N 48°23' W 004°30'5 9.6
2017-Nov-17 15:29N 48°18' W 004°31'4 9.4
2017-Nov-17 15:01N 48°22' W 004°29'1 0.1
2017-Nov-17 07:30N 48°23' W 004°30'510.1
2017-Nov-17 06:59N 48°18' W 004°31'510.8
2017-Nov-17 06:31N 48°23' W 004°30'0 0.4
2017-Nov-17 05:59N 48°23' W 004°30'0 0.2
2017-Nov-17 05:29N 48°23' W 004°30'0 0.0
2017-Nov-16 16:04N 48°23' W 004°30'0 0.2
2017-Nov-16 16:00N 48°23' W 004°30'510.5
2017-Nov-16 15:30N 48°18' W 004°31'3 5.6
2017-Nov-16 15:00N 48°20' W 004°29'3 1.2
2017-Nov-16 12:45N 48°23' W 004°30'2 8.7
2017-Nov-16 12:31N 48°21' W 004°29'3 6.2
2017-Nov-16 12:01N 48°18' W 004°27'2 4.1
2017-Nov-16 11:31N 48°20' W 004°28'3 6.3
2017-Nov-16 11:00N 48°23' W 004°30'0 0.0
2017-Nov-16 07:18N 48°23' W 004°30'413.2
2017-Nov-16 07:00N 48°19' W 004°29'1 2.2
2017-Nov-16 06:30N 48°20' W 004°29'3 5.2
2017-Nov-16 05:58N 48°23' W 004°30'0 0.0
2017-Nov-15 16:05N 48°23' W 004°30'0 0.5
2017-Nov-15 16:01N 48°23' W 004°30'510.0
2017-Nov-15 15:29N 48°18' W 004°31'3 7.2
2017-Nov-15 15:00N 48°21' W 004°29'2 0.9
2017-Nov-15 12:57N 48°23' W 004°30'3 7.6
2017-Nov-15 12:31N 48°20' W 004°29'3 5.7
2017-Nov-15 12:00N 48°18' W 004°26'3 5.6
2017-Nov-15 11:31N 48°20' W 004°28'3 5.8
2017-Nov-15 11:00N 48°23' W 004°30'0 0.0
2017-Nov-15 07:22N 48°23' W 004°30'411.1
2017-Nov-15 07:00N 48°19' W 004°29'1 2.4
2017-Nov-15 06:31N 48°20' W 004°29'3 5.7
2017-Nov-15 06:00N 48°23' W 004°30'0 0.0
2017-Nov-14 16:07N 48°23' W 004°30'0 0.3
2017-Nov-14 16:00N 48°23' W 004°30'5 9.8
2017-Nov-14 15:29N 48°18' W 004°31'3 7.5
2017-Nov-14 15:01N 48°21' W 004°29'2 0.8
2017-Nov-14 12:48N 48°23' W 004°30'2 7.9
2017-Nov-14 12:30N 48°21' W 004°29'3 6.2
2017-Nov-14 12:00N 48°18' W 004°27'3 5.3
2017-Nov-14 11:30N 48°20' W 004°28'3 5.3
2017-Nov-14 11:00N 48°23' W 004°30'0 0.0
2017-Nov-14 08:50N 48°23' W 004°30'1 2.8
2017-Nov-14 08:30N 48°22' W 004°31'0 0.7
2017-Nov-14 08:00N 48°22' W 004°30'1 1.3
2017-Nov-14 07:29N 48°23' W 004°30'4 9.1
2017-Nov-14 07:00N 48°19' W 004°29'  

Dump ship's entire track history